createdAt,value
2017-08-16T00:00:03.511Z,20.87
2017-08-16T00:02:31.282Z,20.90
2017-08-16T00:04:58.687Z,20.90
2017-08-16T00:07:26.088Z,20.89
2017-08-16T00:09:53.859Z,20.93
2017-08-16T00:12:21.259Z,20.97
2017-08-16T00:14:48.653Z,20.91
2017-08-16T00:17:16.099Z,20.88
2017-08-16T00:19:43.495Z,20.87
2017-08-16T00:22:10.906Z,20.87
2017-08-16T00:24:38.416Z,20.85
2017-08-16T00:27:05.815Z,20.83
2017-08-16T00:29:33.216Z,20.90
2017-08-16T00:32:00.640Z,20.86
2017-08-16T00:34:28.037Z,20.81
2017-08-16T00:36:55.648Z,20.82
2017-08-16T00:39:23.196Z,20.80
2017-08-16T00:41:50.599Z,20.82
2017-08-16T00:44:17.995Z,20.83
2017-08-16T00:46:45.442Z,20.76
2017-08-16T00:49:12.840Z,20.75
2017-08-16T00:51:40.244Z,20.80
2017-08-16T00:54:07.659Z,20.71
2017-08-16T00:56:35.060Z,20.72
2017-08-16T00:59:02.460Z,20.59
2017-08-16T01:01:29.868Z,20.57
2017-08-16T01:03:57.264Z,20.53
2017-08-16T01:06:24.672Z,20.47
2017-08-16T01:08:52.228Z,20.42
2017-08-16T01:11:19.691Z,20.41
2017-08-16T01:13:47.076Z,20.29
2017-08-16T01:16:14.806Z,20.25
2017-08-16T01:18:42.206Z,20.15
2017-08-16T01:21:09.612Z,20.09
2017-08-16T01:23:37.175Z,19.98
2017-08-16T01:26:04.586Z,19.89
2017-08-16T01:28:31.993Z,19.88
2017-08-16T01:30:59.442Z,19.77
2017-08-16T01:33:26.844Z,19.72
2017-08-16T01:35:54.260Z,19.68
2017-08-16T01:38:21.778Z,19.65
2017-08-16T01:40:49.179Z,19.65
2017-08-16T01:43:16.580Z,19.67
2017-08-16T01:45:44.009Z,19.62
2017-08-16T01:48:11.411Z,19.60
2017-08-16T01:50:38.807Z,19.66
2017-08-16T01:53:06.672Z,19.61
2017-08-16T01:55:34.074Z,19.61
2017-08-16T01:58:01.469Z,19.59
2017-08-16T02:00:29.028Z,19.53
2017-08-16T02:02:56.418Z,19.54
2017-08-16T02:05:23.819Z,19.60
2017-08-16T02:07:51.379Z,19.61
2017-08-16T02:10:18.777Z,19.68
2017-08-16T02:12:46.176Z,19.63
2017-08-16T02:15:13.591Z,19.64
2017-08-16T02:17:40.994Z,19.58
2017-08-16T02:20:08.391Z,19.50
2017-08-16T02:22:36.156Z,19.47
2017-08-16T02:25:03.583Z,19.43
2017-08-16T02:27:30.984Z,19.43
2017-08-16T02:29:58.407Z,19.37
2017-08-16T02:32:25.808Z,19.30
2017-08-16T02:34:53.207Z,19.24
2017-08-16T02:37:20.648Z,19.18
2017-08-16T02:39:48.057Z,19.14
2017-08-16T02:42:15.450Z,19.16
2017-08-16T02:44:43.003Z,19.17
2017-08-16T02:47:10.396Z,19.20
2017-08-16T02:49:37.801Z,19.16
2017-08-16T02:52:05.639Z,19.16
2017-08-16T02:54:33.035Z,19.18
2017-08-16T02:57:00.447Z,19.16
2017-08-16T02:59:27.994Z,19.09
2017-08-16T03:01:55.395Z,19.02
2017-08-16T03:04:22.794Z,19.01
2017-08-16T03:06:50.502Z,18.96
2017-08-16T03:09:17.898Z,18.89
2017-08-16T03:11:45.302Z,18.85
2017-08-16T03:14:12.807Z,18.81
2017-08-16T03:16:40.203Z,18.78
2017-08-16T03:19:07.602Z,18.74
2017-08-16T03:21:35.158Z,18.74
2017-08-16T03:24:02.562Z,18.75
2017-08-16T03:26:29.960Z,18.78
2017-08-16T03:28:57.588Z,18.81
2017-08-16T03:31:24.992Z,18.80
2017-08-16T03:33:52.387Z,18.81
2017-08-16T03:36:19.943Z,18.79
2017-08-16T03:38:47.338Z,18.80
2017-08-16T03:41:14.741Z,18.79
2017-08-16T03:43:42.248Z,18.79
2017-08-16T03:46:09.647Z,18.78
2017-08-16T03:48:37.043Z,18.69
2017-08-16T03:51:04.451Z,18.59
2017-08-16T03:53:31.854Z,18.51
2017-08-16T03:55:59.260Z,18.44
2017-08-16T03:58:26.705Z,18.36
2017-08-16T04:00:54.096Z,18.31
2017-08-16T04:03:21.494Z,18.24
2017-08-16T04:05:49.270Z,18.24
2017-08-16T04:08:16.671Z,18.23
2017-08-16T04:10:44.070Z,18.19
2017-08-16T04:13:11.496Z,18.15
2017-08-16T04:15:38.898Z,18.13
2017-08-16T04:18:06.295Z,18.12
2017-08-16T04:20:34.025Z,18.13
2017-08-16T04:23:01.427Z,18.21
2017-08-16T04:25:28.822Z,18.25
2017-08-16T04:27:56.384Z,18.32
2017-08-16T04:30:23.775Z,18.37
2017-08-16T04:32:51.183Z,18.44
2017-08-16T04:35:18.625Z,18.47
2017-08-16T04:37:46.028Z,18.50
2017-08-16T04:40:13.419Z,18.52
2017-08-16T04:42:40.834Z,18.54
2017-08-16T04:45:08.259Z,18.53
2017-08-16T04:47:35.718Z,18.51
2017-08-16T04:50:03.511Z,18.51
2017-08-16T04:52:30.916Z,18.54
2017-08-16T04:54:58.310Z,18.62
2017-08-16T04:57:26.067Z,18.69
2017-08-16T04:59:53.473Z,18.76
2017-08-16T05:02:20.879Z,18.84
2017-08-16T05:04:48.666Z,18.89
2017-08-16T05:07:16.064Z,18.94
2017-08-16T05:09:43.482Z,18.92
2017-08-16T05:12:10.900Z,19.06
2017-08-16T05:14:38.358Z,19.11
2017-08-16T05:17:05.890Z,19.18
2017-08-16T05:19:33.295Z,19.26
2017-08-16T05:22:00.694Z,19.26
2017-08-16T05:24:28.098Z,19.28
2017-08-16T05:26:55.499Z,19.31
2017-08-16T05:29:23.092Z,19.37
2017-08-16T05:31:50.487Z,19.44
2017-08-16T05:34:17.899Z,19.51
2017-08-16T05:36:45.308Z,19.58
2017-08-16T05:39:12.703Z,19.64
2017-08-16T05:41:40.267Z,19.71
2017-08-16T05:44:07.666Z,19.75
2017-08-16T05:46:35.071Z,19.81
2017-08-16T05:49:02.471Z,19.86
2017-08-16T05:51:29.867Z,19.92
2017-08-16T05:53:57.854Z,19.90
2017-08-16T05:56:25.261Z,19.97
2017-08-16T05:58:52.650Z,20.06
2017-08-16T06:01:20.064Z,20.00
2017-08-16T06:03:47.472Z,19.97
2017-08-16T06:06:15.056Z,19.79
2017-08-16T06:08:42.467Z,19.84
2017-08-16T06:11:09.878Z,19.80
2017-08-16T06:13:37.290Z,19.88
2017-08-16T06:16:04.699Z,19.80
2017-08-16T06:18:32.219Z,19.88
2017-08-16T06:20:59.608Z,20.05
2017-08-16T06:23:27.007Z,20.20
2017-08-16T06:25:54.424Z,20.16
2017-08-16T06:28:21.823Z,20.24
2017-08-16T06:30:49.407Z,20.29
2017-08-16T06:33:16.795Z,20.20
2017-08-16T06:35:44.225Z,20.24
2017-08-16T06:38:11.617Z,20.38
2017-08-16T06:40:39.014Z,20.50
2017-08-16T06:43:06.419Z,20.57
2017-08-16T06:45:33.831Z,20.63
2017-08-16T06:48:01.245Z,20.73
2017-08-16T06:50:28.643Z,20.85
2017-08-16T06:52:56.587Z,20.92
2017-08-16T06:55:23.986Z,21.00
2017-08-16T06:57:51.382Z,21.08
2017-08-16T07:00:18.783Z,21.17
2017-08-16T07:02:46.179Z,21.21
2017-08-16T07:05:13.754Z,21.29
2017-08-16T07:07:41.150Z,21.20
2017-08-16T07:10:08.558Z,21.21
2017-08-16T07:12:35.967Z,21.21
2017-08-16T07:15:03.362Z,21.13
2017-08-16T07:17:30.816Z,21.10
2017-08-16T07:19:58.223Z,20.98
2017-08-16T07:22:25.624Z,20.98
2017-08-16T07:24:53.027Z,21.01
2017-08-16T07:27:20.424Z,21.12
2017-08-16T07:29:47.939Z,21.34
2017-08-16T07:32:15.339Z,21.58
2017-08-16T07:34:42.732Z,21.81
2017-08-16T07:37:10.136Z,21.83
2017-08-16T07:39:37.534Z,21.96
2017-08-16T07:42:05.128Z,22.15
2017-08-16T07:44:32.520Z,22.36
2017-08-16T07:46:59.919Z,22.63
2017-08-16T07:49:27.319Z,22.90
2017-08-16T07:51:54.719Z,22.96
2017-08-16T07:54:22.228Z,22.96
2017-08-16T07:56:49.639Z,23.01
2017-08-16T07:59:17.040Z,23.10
2017-08-16T08:01:44.451Z,22.84
2017-08-16T08:04:11.847Z,22.57
2017-08-16T08:06:39.355Z,22.39
2017-08-16T08:09:06.756Z,22.28
2017-08-16T08:11:34.158Z,22.19
2017-08-16T08:14:01.559Z,21.80
2017-08-16T08:16:28.955Z,21.80
2017-08-16T08:18:56.467Z,21.71
2017-08-16T08:21:23.864Z,21.72
2017-08-16T08:23:51.254Z,21.73
2017-08-16T08:26:18.655Z,21.80
2017-08-16T08:28:46.065Z,21.91
2017-08-16T08:31:13.500Z,22.01
2017-08-16T08:33:40.896Z,22.14
2017-08-16T08:36:08.295Z,22.11
2017-08-16T08:38:35.703Z,22.22
2017-08-16T08:41:03.104Z,22.35
2017-08-16T08:43:30.736Z,22.50
2017-08-16T08:45:58.131Z,22.57
2017-08-16T08:48:25.536Z,22.85
2017-08-16T08:50:52.938Z,23.03
2017-08-16T08:53:20.343Z,23.12
2017-08-16T08:55:47.787Z,23.18
2017-08-16T08:58:15.191Z,23.36
2017-08-16T09:00:42.595Z,23.61
2017-08-16T09:03:10.004Z,23.75
2017-08-16T09:05:37.403Z,23.94
2017-08-16T09:08:05.103Z,24.24
2017-08-16T09:10:32.501Z,24.52
2017-08-16T09:12:59.904Z,24.72
2017-08-16T09:15:27.306Z,25.08
2017-08-16T09:17:54.710Z,25.36
2017-08-16T09:20:22.267Z,25.40
2017-08-16T09:22:49.668Z,24.93
2017-08-16T09:25:17.067Z,24.92
2017-08-16T09:27:44.476Z,25.00
2017-08-16T09:30:11.867Z,25.19
2017-08-16T09:32:39.284Z,25.30
2017-08-16T09:35:06.697Z,25.51
2017-08-16T09:37:34.093Z,25.51
2017-08-16T09:40:01.501Z,25.90
2017-08-16T09:42:28.897Z,26.25
2017-08-16T09:44:56.558Z,26.32
2017-08-16T09:47:23.954Z,26.54
2017-08-16T09:49:51.356Z,26.69
2017-08-16T09:52:18.779Z,26.83
2017-08-16T09:54:46.179Z,26.68
2017-08-16T09:57:13.616Z,27.02
2017-08-16T09:59:41.030Z,27.25
2017-08-16T10:02:08.427Z,27.21
2017-08-16T10:04:35.839Z,27.19
2017-08-16T10:07:03.246Z,27.28
2017-08-16T10:09:30.687Z,27.71
2017-08-16T10:11:58.092Z,27.58
2017-08-16T10:14:25.492Z,27.04
2017-08-16T10:16:52.906Z,27.20
2017-08-16T10:19:20.308Z,27.40
2017-08-16T10:21:48.003Z,27.12
2017-08-16T10:24:15.398Z,27.47
2017-08-16T10:26:42.795Z,27.84
2017-08-16T10:29:10.206Z,27.79
2017-08-16T10:31:37.607Z,28.36
2017-08-16T10:34:05.164Z,28.80
2017-08-16T10:36:32.563Z,28.89
2017-08-16T10:38:59.962Z,28.93
2017-08-16T10:41:27.362Z,28.71
2017-08-16T10:43:54.764Z,28.32
2017-08-16T10:46:22.188Z,27.08
2017-08-16T10:48:49.583Z,26.69
2017-08-16T10:51:16.986Z,26.59
2017-08-16T10:53:44.393Z,26.90
2017-08-16T10:56:11.788Z,27.42
2017-08-16T10:58:39.339Z,28.03
2017-08-16T11:01:06.737Z,28.65
2017-08-16T11:03:34.137Z,29.22
2017-08-16T11:06:01.547Z,29.42
2017-08-16T11:08:28.944Z,29.35
2017-08-16T11:10:56.456Z,29.43
2017-08-16T11:13:23.855Z,29.65
2017-08-16T11:15:51.256Z,29.71
2017-08-16T11:18:18.664Z,30.04
2017-08-16T11:20:46.064Z,30.38
2017-08-16T11:23:13.484Z,30.62
2017-08-16T11:25:40.879Z,30.73
2017-08-16T11:28:08.283Z,30.24
2017-08-16T11:30:35.688Z,29.72
2017-08-16T11:33:03.098Z,29.58
2017-08-16T11:35:30.543Z,29.48
2017-08-16T11:37:57.947Z,29.99
2017-08-16T11:40:25.341Z,30.12
2017-08-16T11:42:52.743Z,29.86
2017-08-16T11:45:20.139Z,30.34
2017-08-16T11:47:47.697Z,30.38
2017-08-16T11:50:15.102Z,30.21
2017-08-16T11:52:42.509Z,29.03
2017-08-16T11:55:09.916Z,29.36
2017-08-16T11:57:37.312Z,29.33
2017-08-16T12:00:04.824Z,29.17
2017-08-16T12:02:32.219Z,29.43
2017-08-16T12:04:59.612Z,28.91
2017-08-16T12:07:27.021Z,29.57
2017-08-16T12:09:54.462Z,29.83
2017-08-16T12:12:21.983Z,29.89
2017-08-16T12:14:49.379Z,30.22
2017-08-16T12:17:16.779Z,30.45
2017-08-16T12:19:44.527Z,30.33
2017-08-16T12:22:11.936Z,30.27
2017-08-16T12:24:39.345Z,30.21
2017-08-16T12:27:06.784Z,30.06
2017-08-16T12:29:34.185Z,30.49
2017-08-16T12:32:01.585Z,30.83
2017-08-16T12:34:29.839Z,30.48
2017-08-16T12:36:57.239Z,30.66
2017-08-16T12:39:24.794Z,30.24
2017-08-16T12:41:52.195Z,29.92
2017-08-16T12:44:19.591Z,29.77
2017-08-16T12:46:46.999Z,29.85
2017-08-16T12:49:14.404Z,29.90
2017-08-16T12:51:42.093Z,29.73
2017-08-16T12:54:09.508Z,29.56
2017-08-16T12:56:36.906Z,29.10
2017-08-16T12:59:04.311Z,28.51
2017-08-16T13:01:31.711Z,27.91
2017-08-16T13:03:59.123Z,28.18
2017-08-16T13:06:26.536Z,28.28
2017-08-16T13:08:53.930Z,28.45
2017-08-16T13:11:21.348Z,28.58
2017-08-16T13:13:48.748Z,28.48
2017-08-16T13:16:16.305Z,28.31
2017-08-16T13:18:43.695Z,28.22
2017-08-16T13:21:11.091Z,28.27
2017-08-16T13:23:38.495Z,28.46
2017-08-16T13:26:05.900Z,28.63
2017-08-16T13:28:33.343Z,28.76
2017-08-16T13:31:00.751Z,29.10
2017-08-16T13:33:28.147Z,29.44
2017-08-16T13:35:55.547Z,29.57
2017-08-16T13:38:22.951Z,29.64
2017-08-16T13:40:50.511Z,29.49
2017-08-16T13:43:17.903Z,29.27
2017-08-16T13:45:45.305Z,28.96
2017-08-16T13:48:12.711Z,28.87
2017-08-16T13:50:40.126Z,28.74
2017-08-16T13:53:07.639Z,28.62
2017-08-16T13:55:35.037Z,28.59
2017-08-16T13:58:02.435Z,28.54
2017-08-16T14:00:29.845Z,28.57
2017-08-16T14:02:57.243Z,28.27
2017-08-16T14:05:24.687Z,28.18
2017-08-16T14:07:52.083Z,28.20
2017-08-16T14:10:19.478Z,28.48
2017-08-16T14:12:46.879Z,28.65
2017-08-16T14:15:14.277Z,28.77
2017-08-16T14:17:42.081Z,28.73
2017-08-16T14:20:09.483Z,28.27
2017-08-16T14:22:36.882Z,28.28
2017-08-16T14:25:04.291Z,28.22
2017-08-16T14:27:31.691Z,28.32
2017-08-16T14:29:59.111Z,28.53
2017-08-16T14:32:26.507Z,28.51
2017-08-16T14:34:53.921Z,28.65
2017-08-16T14:37:21.324Z,28.69
2017-08-16T14:39:48.728Z,28.67
2017-08-16T14:42:16.173Z,28.58
2017-08-16T14:44:43.580Z,28.24
2017-08-16T14:47:10.992Z,28.19
2017-08-16T14:49:38.416Z,28.25
2017-08-16T14:52:05.810Z,28.29
2017-08-16T14:54:33.529Z,28.31
2017-08-16T14:57:00.923Z,28.34
2017-08-16T14:59:28.321Z,28.41
2017-08-16T15:01:55.732Z,28.45
2017-08-16T15:04:23.123Z,28.50
2017-08-16T15:06:50.887Z,28.57
2017-08-16T15:09:18.286Z,28.61
2017-08-16T15:11:45.683Z,28.64
2017-08-16T15:14:13.099Z,28.64
2017-08-16T15:16:40.512Z,28.54
2017-08-16T15:19:08.022Z,28.51
2017-08-16T15:21:35.428Z,28.49
2017-08-16T15:24:02.831Z,28.36
2017-08-16T15:26:30.232Z,28.27
2017-08-16T15:28:57.640Z,28.23
2017-08-16T15:31:25.154Z,28.19
2017-08-16T15:33:52.543Z,28.13
2017-08-16T15:36:19.940Z,27.83
2017-08-16T15:38:47.347Z,27.44
2017-08-16T15:41:14.756Z,27.65
2017-08-16T15:43:42.303Z,27.69
2017-08-16T15:46:09.707Z,27.70
2017-08-16T15:48:37.107Z,27.65
2017-08-16T15:51:04.527Z,27.62
2017-08-16T15:53:31.979Z,27.63
2017-08-16T15:55:59.424Z,27.61
2017-08-16T15:58:26.824Z,27.62
2017-08-16T16:00:54.234Z,27.61
2017-08-16T16:03:21.643Z,27.60
2017-08-16T16:05:49.039Z,27.57
2017-08-16T16:08:16.468Z,27.50
2017-08-16T16:10:43.876Z,27.43
2017-08-16T16:13:11.278Z,27.41
2017-08-16T16:15:38.686Z,27.37
2017-08-16T16:18:06.094Z,27.36
2017-08-16T16:20:33.604Z,27.34
2017-08-16T16:23:01.017Z,27.40
2017-08-16T16:25:28.415Z,27.45
2017-08-16T16:27:55.824Z,27.56
2017-08-16T16:30:23.224Z,27.69
2017-08-16T16:32:50.632Z,27.82
2017-08-16T16:35:18.039Z,27.95
2017-08-16T16:37:45.434Z,27.99
2017-08-16T16:40:12.845Z,27.99
2017-08-16T16:42:40.239Z,27.97
2017-08-16T16:45:07.694Z,27.85
2017-08-16T16:47:35.100Z,27.71
2017-08-16T16:50:02.500Z,27.51
2017-08-16T16:52:29.903Z,27.35
2017-08-16T16:54:57.299Z,27.18
2017-08-16T16:57:24.872Z,27.01
2017-08-16T16:59:52.275Z,26.92
2017-08-16T17:02:19.681Z,26.79
2017-08-16T17:04:47.100Z,26.62
2017-08-16T17:07:14.504Z,26.49
2017-08-16T17:09:42.247Z,26.28
2017-08-16T17:12:09.642Z,26.18
2017-08-16T17:14:37.052Z,26.04
2017-08-16T17:17:04.447Z,25.99
2017-08-16T17:19:31.851Z,25.94
2017-08-16T17:21:59.291Z,25.95
2017-08-16T17:24:26.692Z,25.92
2017-08-16T17:26:54.091Z,25.87
2017-08-16T17:29:21.498Z,25.81
2017-08-16T17:31:48.919Z,25.71
2017-08-16T17:34:16.320Z,25.64
2017-08-16T17:36:43.739Z,25.57
2017-08-16T17:39:11.149Z,25.50
2017-08-16T17:41:38.548Z,25.44
2017-08-16T17:44:06.250Z,25.39
2017-08-16T17:46:33.655Z,25.34
2017-08-16T17:49:01.052Z,25.30
2017-08-16T17:51:28.823Z,25.22
2017-08-16T17:53:56.229Z,25.12
2017-08-16T17:56:23.627Z,25.04
2017-08-16T17:58:51.047Z,24.98
2017-08-16T18:01:18.442Z,24.92
2017-08-16T18:03:46.129Z,24.85
2017-08-16T18:06:13.518Z,24.79
2017-08-16T18:08:40.912Z,24.73
2017-08-16T18:11:08.326Z,24.67
2017-08-16T18:13:35.722Z,24.62
2017-08-16T18:16:03.399Z,24.56
2017-08-16T18:18:30.794Z,24.57
2017-08-16T18:20:58.195Z,24.54
2017-08-16T18:23:25.604Z,24.45
2017-08-16T18:25:53.001Z,24.45
2017-08-16T18:28:20.426Z,24.42
2017-08-16T18:30:47.830Z,24.37
2017-08-16T18:33:15.231Z,24.27
2017-08-16T18:35:42.635Z,24.17
2017-08-16T18:38:10.036Z,24.07
2017-08-16T18:40:37.557Z,23.96
2017-08-16T18:43:04.951Z,23.89
2017-08-16T18:45:32.375Z,23.83
2017-08-16T18:47:59.775Z,23.74
2017-08-16T18:50:27.177Z,23.48
2017-08-16T18:52:54.587Z,23.47
2017-08-16T18:55:21.987Z,23.40
2017-08-16T18:57:49.383Z,23.30
2017-08-16T19:00:16.790Z,23.35
2017-08-16T19:02:44.191Z,23.34
2017-08-16T19:05:11.757Z,23.35
2017-08-16T19:07:39.159Z,23.36
2017-08-16T19:10:06.567Z,23.35
2017-08-16T19:12:33.970Z,23.18
2017-08-16T19:15:01.391Z,23.05
2017-08-16T19:17:28.811Z,22.88
2017-08-16T19:19:56.264Z,22.82
2017-08-16T19:22:23.661Z,22.88
2017-08-16T19:24:51.052Z,22.92
2017-08-16T19:27:18.447Z,22.95
2017-08-16T19:29:45.894Z,22.89
2017-08-16T19:32:13.296Z,22.88
2017-08-16T19:34:40.703Z,22.89
2017-08-16T19:37:08.107Z,22.91
2017-08-16T19:39:35.507Z,22.88
2017-08-16T19:42:03.160Z,22.95
2017-08-16T19:44:30.552Z,22.96
2017-08-16T19:46:57.956Z,23.02
2017-08-16T19:49:25.360Z,23.04
2017-08-16T19:51:52.760Z,23.02
2017-08-16T19:54:20.168Z,23.02
2017-08-16T19:56:47.571Z,23.04
2017-08-16T19:59:14.977Z,23.07
2017-08-16T20:01:42.380Z,23.09
2017-08-16T20:04:09.788Z,23.08
2017-08-16T20:06:37.295Z,23.02
2017-08-16T20:09:04.691Z,22.99
2017-08-16T20:11:32.100Z,22.92
2017-08-16T20:13:59.550Z,22.88
2017-08-16T20:16:26.923Z,22.83
2017-08-16T20:18:54.357Z,22.75
2017-08-16T20:21:21.755Z,22.66
2017-08-16T20:23:49.156Z,22.53
2017-08-16T20:26:16.556Z,22.40
2017-08-16T20:28:43.968Z,22.27
2017-08-16T20:31:11.516Z,22.16
2017-08-16T20:33:38.912Z,21.98
2017-08-16T20:36:06.319Z,21.97
2017-08-16T20:38:33.730Z,21.90
2017-08-16T20:41:01.127Z,21.84
2017-08-16T20:43:28.684Z,21.82
2017-08-16T20:45:56.100Z,21.76
2017-08-16T20:48:23.499Z,21.71
2017-08-16T20:50:50.909Z,21.69
2017-08-16T20:53:18.303Z,21.66
2017-08-16T20:55:45.760Z,21.63
2017-08-16T20:58:13.159Z,21.64
2017-08-16T21:00:40.563Z,21.63
2017-08-16T21:03:07.967Z,21.62
2017-08-16T21:05:35.367Z,21.65
2017-08-16T21:08:02.924Z,21.61
2017-08-16T21:10:30.327Z,21.56
2017-08-16T21:12:57.722Z,21.56
2017-08-16T21:15:25.136Z,21.52
2017-08-16T21:17:52.543Z,21.39
2017-08-16T21:20:20.107Z,21.35
2017-08-16T21:22:47.504Z,21.23
2017-08-16T21:25:14.908Z,21.25
2017-08-16T21:27:42.315Z,21.23
2017-08-16T21:30:09.720Z,21.16
2017-08-16T21:32:37.427Z,21.11
2017-08-16T21:35:04.826Z,21.07
2017-08-16T21:37:32.235Z,21.02
2017-08-16T21:39:59.652Z,20.95
2017-08-16T21:42:27.042Z,20.88
2017-08-16T21:44:54.596Z,20.83
2017-08-16T21:47:22.001Z,20.78
2017-08-16T21:49:49.395Z,20.75
2017-08-16T21:52:16.802Z,20.72
2017-08-16T21:54:44.224Z,20.71
2017-08-16T21:57:11.784Z,20.70
2017-08-16T21:59:39.192Z,20.68
2017-08-16T22:02:06.599Z,20.70
2017-08-16T22:04:33.998Z,20.69
2017-08-16T22:07:01.396Z,20.69
2017-08-16T22:09:28.913Z,20.66
2017-08-16T22:11:56.381Z,20.67
2017-08-16T22:14:23.783Z,20.65
2017-08-16T22:16:51.193Z,20.63
2017-08-16T22:19:18.616Z,20.61
2017-08-16T22:21:46.108Z,20.65
2017-08-16T22:24:13.524Z,20.64
2017-08-16T22:26:40.919Z,20.63
2017-08-16T22:29:08.329Z,20.62
2017-08-16T22:31:35.748Z,20.57
2017-08-16T22:34:03.357Z,20.57
2017-08-16T22:36:30.755Z,20.57
2017-08-16T22:38:58.155Z,20.57
2017-08-16T22:41:25.583Z,20.52
2017-08-16T22:43:53.021Z,20.49
2017-08-16T22:46:20.467Z,20.47
2017-08-16T22:48:47.871Z,20.44
2017-08-16T22:51:15.299Z,20.41
2017-08-16T22:53:42.699Z,20.38
2017-08-16T22:56:10.100Z,20.37
2017-08-16T22:58:37.663Z,20.35
2017-08-16T23:01:05.079Z,20.31
2017-08-16T23:17:44.555Z,20.08
2017-08-16T23:20:12.123Z,20.05
2017-08-16T23:22:39.518Z,20.01
2017-08-16T23:25:06.910Z,19.98
2017-08-16T23:27:34.310Z,19.95
2017-08-16T23:30:01.707Z,19.92
2017-08-16T23:32:29.287Z,19.89
2017-08-16T23:34:56.689Z,19.86
2017-08-16T23:37:24.086Z,19.81
2017-08-16T23:39:51.487Z,19.79
2017-08-16T23:42:18.884Z,19.79
2017-08-16T23:44:46.551Z,19.77
2017-08-16T23:47:13.942Z,19.75
2017-08-16T23:49:41.343Z,19.74
2017-08-16T23:52:08.747Z,19.76
2017-08-16T23:54:36.156Z,19.73
2017-08-16T23:57:03.722Z,19.71
2017-08-16T23:59:31.123Z,19.66
